createdAt,value
2023-03-29T00:00:08.311Z,33.91
2023-03-29T00:01:08.324Z,33.87
2023-03-29T00:02:08.393Z,33.86
2023-03-29T00:03:08.476Z,33.86
2023-03-29T00:04:08.397Z,33.85
2023-03-29T00:05:08.385Z,33.79
2023-03-29T00:06:08.429Z,33.82
2023-03-29T00:07:08.467Z,33.86
2023-03-29T00:08:08.478Z,33.79
2023-03-29T00:09:08.499Z,33.78
2023-03-29T00:10:08.493Z,33.77
2023-03-29T00:11:08.555Z,33.79
2023-03-29T00:12:08.475Z,33.74
2023-03-29T00:13:08.465Z,33.74
2023-03-29T00:14:08.452Z,33.78
2023-03-29T00:15:08.443Z,33.81
2023-03-29T00:16:08.427Z,33.72
2023-03-29T00:17:08.487Z,33.74
2023-03-29T00:18:08.433Z,33.75
2023-03-29T00:19:08.406Z,33.75
2023-03-29T00:20:08.384Z,33.79
2023-03-29T00:21:08.358Z,33.74
2023-03-29T00:22:08.349Z,33.72
2023-03-29T00:23:08.318Z,33.70
2023-03-29T00:24:08.319Z,33.69
2023-03-29T00:25:08.317Z,33.69
2023-03-29T00:26:08.576Z,33.67
2023-03-29T00:27:08.268Z,33.69
2023-03-29T00:28:08.243Z,33.70
2023-03-29T00:29:08.231Z,33.63
2023-03-29T00:30:08.256Z,33.68
2023-03-29T00:31:08.317Z,33.63
2023-03-29T00:32:08.237Z,33.66
2023-03-29T00:33:08.261Z,33.66
2023-03-29T00:34:08.237Z,33.65
2023-03-29T00:35:08.229Z,33.65
2023-03-29T00:36:08.274Z,33.61
2023-03-29T00:37:08.205Z,33.61
2023-03-29T00:38:08.186Z,33.57
2023-03-29T00:39:08.184Z,33.59
2023-03-29T00:40:08.166Z,33.60
2023-03-29T00:41:08.153Z,33.54
2023-03-29T00:42:08.133Z,33.53
2023-03-29T00:43:08.099Z,33.54
2023-03-29T00:44:08.089Z,33.54
2023-03-29T00:45:08.094Z,33.52
2023-03-29T00:46:08.147Z,33.53
2023-03-29T00:47:08.057Z,33.55
2023-03-29T00:48:08.121Z,33.55
2023-03-29T00:49:08.022Z,33.53
2023-03-29T00:50:07.988Z,33.52
2023-03-29T00:51:09.866Z,33.47
2023-03-29T00:52:07.941Z,33.49
2023-03-29T00:53:07.921Z,33.50
2023-03-29T00:54:07.902Z,33.47
2023-03-29T00:55:07.881Z,33.49
2023-03-29T00:56:07.861Z,33.47
2023-03-29T00:57:07.866Z,33.48
2023-03-29T00:58:07.812Z,33.48
2023-03-29T00:59:07.798Z,33.44
2023-03-29T01:00:07.772Z,33.49
2023-03-29T01:01:07.749Z,33.45
2023-03-29T01:02:07.833Z,33.45
2023-03-29T01:03:07.862Z,33.42
2023-03-29T01:04:07.789Z,33.42
2023-03-29T01:05:07.704Z,33.42
2023-03-29T01:06:07.701Z,33.41
2023-03-29T01:07:07.739Z,33.41
2023-03-29T01:08:07.667Z,33.43
2023-03-29T01:09:07.641Z,33.45
2023-03-29T01:10:07.616Z,33.42
2023-03-29T01:11:07.605Z,33.40
2023-03-29T01:12:07.591Z,33.42
2023-03-29T01:13:07.561Z,33.39
2023-03-29T01:14:07.691Z,33.39
2023-03-29T01:15:07.528Z,33.38
2023-03-29T01:16:07.544Z,33.36
2023-03-29T01:17:07.501Z,33.43
2023-03-29T01:18:07.562Z,33.42
2023-03-29T01:19:07.452Z,33.39
2023-03-29T01:20:07.430Z,33.38
2023-03-29T01:21:07.434Z,33.39
2023-03-29T01:22:07.390Z,33.42
2023-03-29T01:23:07.407Z,33.36
2023-03-29T01:24:07.409Z,33.38
2023-03-29T01:25:07.379Z,33.42
2023-03-29T01:26:07.344Z,33.36
2023-03-29T01:27:07.336Z,33.38
2023-03-29T01:28:07.319Z,33.38
2023-03-29T01:29:07.295Z,33.39
2023-03-29T01:30:07.274Z,33.33
2023-03-29T01:31:07.261Z,33.30
2023-03-29T01:32:07.305Z,33.35
2023-03-29T01:33:07.268Z,33.32
2023-03-29T01:34:07.209Z,33.27
2023-03-29T01:35:07.830Z,33.32
2023-03-29T01:36:07.195Z,33.32
2023-03-29T01:37:07.154Z,33.36
2023-03-29T01:38:07.131Z,33.32
2023-03-29T01:39:07.197Z,33.35
2023-03-29T01:40:07.104Z,33.29
2023-03-29T01:41:07.109Z,33.29
2023-03-29T01:42:07.077Z,33.33
2023-03-29T01:43:07.061Z,33.33
2023-03-29T01:44:07.054Z,33.32
2023-03-29T01:45:07.023Z,33.28
2023-03-29T01:46:07.053Z,33.30
2023-03-29T01:47:07.004Z,33.29
2023-03-29T01:48:07.040Z,33.29
2023-03-29T01:49:06.973Z,33.23
2023-03-29T01:50:06.987Z,33.29
2023-03-29T01:51:06.944Z,33.32
2023-03-29T01:52:06.939Z,33.29
2023-03-29T01:53:06.912Z,33.30
2023-03-29T01:54:06.888Z,33.29
2023-03-29T01:55:06.877Z,33.26
2023-03-29T01:56:06.855Z,33.30
2023-03-29T01:57:06.892Z,33.23
2023-03-29T01:58:06.835Z,33.23
2023-03-29T01:59:06.807Z,33.27
2023-03-29T02:00:06.792Z,33.25
2023-03-29T02:01:06.786Z,33.25
2023-03-29T02:02:06.777Z,33.20
2023-03-29T02:03:06.937Z,33.24
2023-03-29T02:04:06.732Z,33.19
2023-03-29T02:05:06.713Z,33.22
2023-03-29T02:06:06.710Z,33.13
2023-03-29T02:07:06.687Z,33.22
2023-03-29T02:08:06.670Z,33.20
2023-03-29T02:09:06.666Z,33.19
2023-03-29T02:10:06.675Z,33.16
2023-03-29T02:11:06.654Z,33.20
2023-03-29T02:12:06.645Z,33.18
2023-03-29T02:13:06.626Z,33.22
2023-03-29T02:14:06.615Z,33.17
2023-03-29T02:15:06.604Z,33.14
2023-03-29T02:16:06.648Z,33.16
2023-03-29T02:17:06.582Z,33.16
2023-03-29T02:18:06.725Z,33.13
2023-03-29T02:19:06.557Z,33.07
2023-03-29T02:20:06.537Z,33.13
2023-03-29T02:21:06.510Z,33.13
2023-03-29T02:22:06.497Z,33.11
2023-03-29T02:23:06.480Z,33.11
2023-03-29T02:24:06.490Z,33.10
2023-03-29T02:25:06.495Z,33.10
2023-03-29T02:26:06.424Z,33.10
2023-03-29T02:27:06.472Z,33.11
2023-03-29T02:28:06.395Z,33.07
2023-03-29T02:29:06.386Z,33.11
2023-03-29T02:30:06.373Z,33.06
2023-03-29T02:31:06.374Z,33.09
2023-03-29T02:32:06.351Z,33.09
2023-03-29T02:33:06.365Z,33.03
2023-03-29T02:34:06.335Z,33.01
2023-03-29T02:35:06.321Z,33.10
2023-03-29T02:36:06.380Z,33.03
2023-03-29T02:37:06.291Z,33.07
2023-03-29T02:38:06.284Z,33.04
2023-03-29T02:39:06.287Z,33.03
2023-03-29T02:40:06.274Z,33.03
2023-03-29T02:41:06.260Z,33.02
2023-03-29T02:42:06.283Z,33.02
2023-03-29T02:43:06.238Z,33.03
2023-03-29T02:44:06.225Z,33.03
2023-03-29T02:45:06.209Z,33.02
2023-03-29T02:46:06.205Z,33.07
2023-03-29T02:47:06.198Z,32.97
2023-03-29T02:49:06.153Z,32.93
2023-03-29T02:50:06.149Z,33.01
2023-03-29T02:51:06.141Z,32.97
2023-03-29T02:52:06.133Z,32.93
2023-03-29T02:53:06.124Z,32.92
2023-03-29T02:54:06.110Z,32.96
2023-03-29T02:55:06.105Z,32.97
2023-03-29T02:56:06.088Z,32.98
2023-03-29T02:57:06.096Z,32.97
2023-03-29T02:58:06.073Z,32.93
2023-03-29T02:59:06.069Z,32.97
2023-03-29T03:00:06.062Z,32.90
2023-03-29T03:01:06.049Z,32.94
2023-03-29T03:02:06.069Z,32.87
2023-03-29T03:03:06.208Z,32.91
2023-03-29T03:04:06.106Z,32.92
2023-03-29T03:05:06.025Z,32.90
2023-03-29T03:06:06.011Z,32.91
2023-03-29T03:07:06.008Z,32.88
2023-03-29T03:08:05.985Z,32.88
2023-03-29T03:09:05.985Z,32.88
2023-03-29T03:10:05.983Z,32.90
2023-03-29T03:11:05.960Z,32.87
2023-03-29T03:12:05.956Z,32.91
2023-03-29T03:13:05.932Z,32.86
2023-03-29T03:14:05.942Z,32.87
2023-03-29T03:15:05.962Z,32.84
2023-03-29T03:16:05.964Z,32.84
2023-03-29T03:17:05.918Z,32.86
2023-03-29T03:18:05.981Z,32.81
2023-03-29T03:19:05.924Z,32.85
2023-03-29T03:20:05.877Z,32.84
2023-03-29T03:21:05.866Z,32.81
2023-03-29T03:22:05.895Z,32.81
2023-03-29T03:23:05.855Z,32.83
2023-03-29T03:24:05.844Z,32.81
2023-03-29T03:25:05.841Z,32.77
2023-03-29T03:26:05.828Z,32.83
2023-03-29T03:27:05.822Z,32.81
2023-03-29T03:28:05.831Z,32.80
2023-03-29T03:29:05.807Z,32.83
2023-03-29T03:30:05.793Z,32.81
2023-03-29T03:31:05.777Z,32.77
2023-03-29T03:32:05.855Z,32.75
2023-03-29T03:33:05.794Z,32.80
2023-03-29T03:34:05.737Z,32.78
2023-03-29T03:35:05.735Z,32.74
2023-03-29T03:36:05.798Z,32.77
2023-03-29T03:37:05.815Z,32.78
2023-03-29T03:38:05.776Z,32.73
2023-03-29T03:39:05.819Z,32.74
2023-03-29T03:40:05.772Z,32.73
2023-03-29T03:41:06.168Z,32.73
2023-03-29T03:42:08.237Z,32.71
2023-03-29T03:43:05.758Z,32.70
2023-03-29T03:44:05.741Z,32.65
2023-03-29T03:45:05.724Z,32.73
2023-03-29T03:46:05.795Z,32.68
2023-03-29T03:47:05.709Z,32.71
2023-03-29T03:48:05.730Z,32.68
2023-03-29T03:49:05.759Z,32.68
2023-03-29T03:50:05.677Z,32.74
2023-03-29T03:51:05.673Z,32.67
2023-03-29T03:52:05.671Z,32.69
2023-03-29T03:53:05.661Z,32.65
2023-03-29T03:54:05.653Z,32.67
2023-03-29T03:55:05.645Z,32.61
2023-03-29T03:56:05.612Z,32.64
2023-03-29T03:57:05.612Z,32.66
2023-03-29T03:58:05.633Z,32.61
2023-03-29T03:59:05.578Z,32.64
2023-03-29T04:00:05.544Z,32.68
2023-03-29T04:01:05.530Z,32.64
2023-03-29T04:02:05.545Z,32.65
2023-03-29T04:03:05.634Z,32.64
2023-03-29T04:04:05.511Z,32.65
2023-03-29T04:05:05.463Z,32.62
2023-03-29T04:06:06.373Z,32.64
2023-03-29T04:07:05.432Z,32.59
2023-03-29T04:08:05.429Z,32.62
2023-03-29T04:09:05.416Z,32.62
2023-03-29T04:10:05.394Z,32.61
2023-03-29T04:11:05.398Z,32.62
2023-03-29T04:12:05.380Z,32.67
2023-03-29T04:13:05.368Z,32.55
2023-03-29T04:14:05.371Z,32.59
2023-03-29T04:15:05.340Z,32.59
2023-03-29T04:16:05.347Z,32.58
2023-03-29T04:17:05.318Z,32.61
2023-03-29T04:18:05.418Z,32.58
2023-03-29T04:19:05.288Z,32.58
2023-03-29T04:20:05.279Z,32.57
2023-03-29T04:21:05.272Z,32.58
2023-03-29T04:22:05.253Z,32.62
2023-03-29T04:23:05.239Z,32.55
2023-03-29T04:24:05.218Z,32.57
2023-03-29T04:25:05.224Z,32.57
2023-03-29T04:26:05.186Z,32.57
2023-03-29T04:27:05.180Z,32.57
2023-03-29T04:28:05.157Z,32.57
2023-03-29T04:29:05.134Z,32.58
2023-03-29T04:30:05.111Z,32.60
2023-03-29T04:31:05.394Z,32.57
2023-03-29T04:32:05.071Z,32.58
2023-03-29T04:33:05.107Z,32.55
2023-03-29T04:34:05.047Z,32.54
2023-03-29T04:35:05.038Z,32.55
2023-03-29T04:36:05.052Z,32.57
2023-03-29T04:37:04.996Z,32.47
2023-03-29T04:38:04.982Z,32.51
2023-03-29T04:39:04.971Z,32.50
2023-03-29T04:40:04.941Z,32.51
2023-03-29T04:41:05.037Z,32.52
2023-03-29T04:42:04.910Z,32.54
2023-03-29T04:43:04.897Z,32.53
2023-03-29T04:44:04.879Z,32.51
2023-03-29T04:45:05.044Z,32.47
2023-03-29T04:46:04.874Z,32.52
2023-03-29T04:47:04.831Z,32.47
2023-03-29T04:48:04.869Z,32.49
2023-03-29T04:49:04.795Z,32.46
2023-03-29T04:50:04.788Z,32.50
2023-03-29T04:51:04.770Z,32.52
2023-03-29T04:52:04.762Z,32.47
2023-03-29T04:53:04.733Z,32.41
2023-03-29T04:54:04.716Z,32.47
2023-03-29T04:55:04.699Z,32.42
2023-03-29T04:56:04.684Z,32.48
2023-03-29T04:57:04.686Z,32.41
2023-03-29T04:58:04.657Z,32.41
2023-03-29T04:59:04.642Z,32.42
2023-03-29T05:00:04.625Z,32.47
2023-03-29T05:01:04.776Z,32.48
2023-03-29T05:02:04.661Z,32.43
2023-03-29T05:03:04.671Z,32.45
2023-03-29T05:04:04.597Z,32.48
2023-03-29T05:05:04.562Z,32.41
2023-03-29T05:06:04.541Z,32.42
2023-03-29T05:07:04.524Z,32.45
2023-03-29T05:08:04.496Z,32.42
2023-03-29T05:09:04.488Z,32.42
2023-03-29T05:10:04.479Z,32.48
2023-03-29T05:11:04.600Z,32.43
2023-03-29T05:12:04.510Z,32.41
2023-03-29T05:13:04.434Z,32.39
2023-03-29T05:14:04.422Z,32.38
2023-03-29T05:15:04.439Z,32.38
2023-03-29T05:16:04.445Z,32.42
2023-03-29T05:17:04.351Z,32.41
2023-03-29T05:18:04.408Z,32.39
2023-03-29T05:19:04.332Z,32.42
2023-03-29T05:20:04.317Z,32.31
2023-03-29T05:21:04.692Z,32.35
2023-03-29T05:22:04.277Z,32.31
2023-03-29T05:23:04.277Z,32.34
2023-03-29T05:24:05.920Z,32.82
2023-03-29T05:25:04.229Z,32.85
2023-03-29T05:26:04.227Z,32.84
2023-03-29T05:27:04.196Z,33.12
2023-03-29T05:28:04.172Z,33.43
2023-03-29T05:29:04.165Z,33.93
2023-03-29T05:30:04.137Z,34.42
2023-03-29T05:31:04.607Z,34.65
2023-03-29T05:32:04.118Z,34.77
2023-03-29T05:33:04.110Z,34.47
2023-03-29T05:34:04.070Z,34.56
2023-03-29T05:35:04.056Z,34.77
2023-03-29T05:36:04.052Z,34.89
2023-03-29T05:37:04.020Z,34.81
2023-03-29T05:38:04.069Z,35.03
2023-03-29T05:39:04.096Z,35.05
2023-03-29T05:40:05.569Z,35.52
2023-03-29T05:41:04.207Z,35.39
2023-03-29T05:42:04.833Z,35.36
2023-03-29T05:43:05.918Z,35.38
2023-03-29T05:44:04.047Z,35.58
2023-03-29T05:45:04.026Z,35.75
2023-03-29T05:46:04.057Z,35.81
2023-03-29T05:47:03.983Z,35.82
2023-03-29T05:48:04.071Z,35.97
2023-03-29T05:49:03.918Z,36.09
2023-03-29T05:50:03.896Z,36.17
2023-03-29T05:51:03.962Z,36.25
2023-03-29T05:52:03.852Z,36.35
2023-03-29T05:53:03.862Z,36.49
2023-03-29T05:54:03.781Z,36.54
2023-03-29T05:55:03.746Z,36.54
2023-03-29T05:56:03.728Z,36.65
2023-03-29T05:57:03.752Z,36.95
2023-03-29T05:58:03.671Z,36.96
2023-03-29T05:59:03.677Z,37.07
2023-03-29T06:00:03.633Z,37.29
2023-03-29T06:01:04.578Z,37.28
2023-03-29T06:02:03.571Z,37.39
2023-03-29T06:03:13.688Z,37.56
2023-03-29T06:04:04.632Z,37.51
2023-03-29T06:05:03.519Z,37.70
2023-03-29T06:06:03.422Z,38.18
2023-03-29T06:07:03.396Z,37.90
2023-03-29T06:08:03.359Z,37.94
2023-03-29T06:09:03.322Z,37.98
2023-03-29T06:10:03.290Z,38.05
2023-03-29T06:11:05.109Z,38.16
2023-03-29T06:12:03.225Z,38.22
2023-03-29T06:13:03.181Z,38.30
2023-03-29T06:14:03.157Z,38.33
2023-03-29T06:15:03.148Z,38.48
2023-03-29T06:16:04.429Z,38.53
2023-03-29T06:17:03.067Z,38.65
2023-03-29T06:18:03.062Z,38.71
2023-03-29T06:19:02.989Z,38.67
2023-03-29T06:20:02.944Z,38.80
2023-03-29T06:21:03.867Z,39.05
2023-03-29T06:22:02.895Z,39.03
2023-03-29T06:23:02.873Z,39.19
2023-03-29T06:24:02.825Z,33.62
2023-03-29T06:25:02.796Z,33.93
2023-03-29T06:26:02.768Z,34.38
2023-03-29T06:27:02.758Z,35.54
2023-03-29T06:28:02.753Z,35.82
2023-03-29T06:29:02.725Z,36.32
2023-03-29T06:30:03.711Z,36.65
2023-03-29T06:31:03.808Z,36.82
2023-03-29T06:32:02.655Z,36.79
2023-03-29T06:33:02.656Z,36.82
2023-03-29T06:34:02.603Z,36.85
2023-03-29T06:35:02.589Z,36.61
2023-03-29T06:36:02.587Z,36.91
2023-03-29T06:37:02.502Z,36.92
2023-03-29T06:38:02.474Z,37.09
2023-03-29T06:39:02.495Z,36.95
2023-03-29T06:40:02.416Z,36.97
2023-03-29T06:41:02.635Z,37.02
2023-03-29T06:42:10.048Z,37.52
2023-03-29T06:43:03.350Z,37.25
2023-03-29T06:44:02.303Z,37.22
2023-03-29T06:45:02.276Z,37.31
2023-03-29T06:46:02.260Z,37.25
2023-03-29T06:47:02.201Z,37.27
2023-03-29T06:48:02.231Z,37.35
2023-03-29T06:49:02.213Z,37.37
2023-03-29T06:50:02.101Z,37.45
2023-03-29T06:51:02.288Z,37.46
2023-03-29T06:52:02.057Z,37.79
2023-03-29T06:53:02.005Z,37.72
2023-03-29T06:54:01.961Z,37.84
2023-03-29T06:55:01.929Z,38.11
2023-03-29T06:56:01.903Z,38.27
2023-03-29T06:57:01.916Z,38.19
2023-03-29T06:58:02.718Z,38.14
2023-03-29T06:59:01.775Z,38.19
2023-03-29T07:00:01.763Z,38.28
2023-03-29T07:01:01.848Z,38.43
2023-03-29T07:02:01.709Z,38.44
2023-03-29T07:03:01.713Z,38.51
2023-03-29T07:04:01.639Z,38.67
2023-03-29T07:05:01.557Z,38.75
2023-03-29T07:06:01.506Z,38.96
2023-03-29T07:07:01.733Z,38.99
2023-03-29T07:08:01.537Z,38.94
2023-03-29T07:09:01.814Z,39.22
2023-03-29T07:10:01.583Z,39.18
2023-03-29T07:11:01.768Z,39.23
2023-03-29T07:12:01.642Z,39.37
2023-03-29T07:13:01.672Z,39.34
2023-03-29T07:14:01.701Z,39.96
2023-03-29T07:15:01.706Z,39.80
2023-03-29T07:16:01.780Z,39.82
2023-03-29T07:17:01.754Z,39.53
2023-03-29T07:18:01.785Z,39.49
2023-03-29T07:19:01.809Z,39.34
2023-03-29T07:20:01.860Z,39.43
2023-03-29T07:21:02.086Z,39.51
2023-03-29T07:22:01.922Z,39.59
2023-03-29T07:23:01.958Z,39.62
2023-03-29T07:24:01.971Z,39.60
2023-03-29T07:25:01.962Z,39.70
2023-03-29T07:26:01.950Z,39.73
2023-03-29T07:27:04.478Z,39.76
2023-03-29T07:28:01.903Z,39.85
2023-03-29T07:29:01.877Z,39.89
2023-03-29T07:30:01.843Z,39.89
2023-03-29T07:31:02.194Z,39.92
2023-03-29T07:32:01.784Z,40.01
2023-03-29T07:33:01.877Z,40.00
2023-03-29T07:34:01.704Z,40.02
2023-03-29T07:35:01.675Z,40.04
2023-03-29T07:36:01.665Z,40.07
2023-03-29T07:37:01.615Z,40.08
2023-03-29T07:38:01.583Z,40.13
2023-03-29T07:39:01.565Z,40.08
2023-03-29T07:40:01.519Z,40.06
2023-03-29T07:41:01.681Z,40.07
2023-03-29T07:42:01.472Z,40.13
2023-03-29T07:43:01.442Z,40.09
2023-03-29T07:44:03.313Z,40.11
2023-03-29T07:45:01.379Z,40.12
2023-03-29T07:46:01.363Z,40.14
2023-03-29T07:47:01.306Z,40.08
2023-03-29T07:48:01.345Z,40.07
2023-03-29T07:49:01.251Z,40.00
2023-03-29T07:50:01.243Z,39.97
2023-03-29T07:51:01.620Z,40.01
2023-03-29T07:52:01.154Z,40.02
2023-03-29T07:53:01.139Z,40.00
2023-03-29T07:54:01.089Z,39.97
2023-03-29T07:55:01.071Z,39.96
2023-03-29T07:56:01.034Z,39.94
2023-03-29T07:57:01.038Z,39.91
2023-03-29T07:58:00.977Z,39.86
2023-03-29T07:59:00.946Z,39.91
2023-03-29T08:00:01.112Z,39.90
2023-03-29T08:01:01.139Z,39.84
2023-03-29T08:02:00.854Z,39.80
2023-03-29T08:03:00.860Z,39.83
2023-03-29T08:04:00.854Z,39.75
2023-03-29T08:05:00.888Z,39.74
2023-03-29T08:06:00.754Z,39.75
2023-03-29T08:07:00.730Z,39.71
2023-03-29T08:08:00.709Z,39.69
2023-03-29T08:09:00.697Z,39.64
2023-03-29T08:10:00.638Z,39.67
2023-03-29T08:11:00.888Z,39.60
2023-03-29T08:12:00.611Z,39.61
2023-03-29T08:13:00.576Z,39.60
2023-03-29T08:14:00.536Z,39.54
2023-03-29T08:15:00.514Z,39.53
2023-03-29T08:16:00.472Z,39.45
2023-03-29T08:17:00.481Z,39.45
2023-03-29T08:18:00.487Z,39.45
2023-03-29T08:19:00.381Z,39.38
2023-03-29T08:20:00.349Z,39.38
2023-03-29T08:21:00.505Z,39.32
2023-03-29T08:22:00.294Z,39.32
2023-03-29T08:23:00.305Z,39.22
2023-03-29T08:24:00.340Z,39.25
2023-03-29T08:25:00.357Z,39.22
2023-03-29T08:26:00.389Z,39.21
2023-03-29T08:27:00.419Z,39.18
2023-03-29T08:28:00.445Z,39.14
2023-03-29T08:29:00.471Z,39.13
2023-03-29T08:30:00.518Z,39.13
2023-03-29T08:31:00.835Z,39.09
2023-03-29T08:32:00.578Z,39.14
2023-03-29T08:33:00.632Z,39.04
2023-03-29T08:34:00.645Z,39.02
2023-03-29T08:35:00.705Z,38.98
2023-03-29T08:36:00.775Z,38.98
2023-03-29T08:37:00.743Z,38.93
2023-03-29T08:38:00.778Z,38.95
2023-03-29T08:39:00.819Z,38.89
2023-03-29T08:40:00.854Z,38.87
2023-03-29T08:41:01.166Z,38.88
2023-03-29T08:42:00.934Z,38.84
2023-03-29T08:43:00.959Z,38.80
2023-03-29T08:44:00.999Z,38.78
2023-03-29T08:45:01.292Z,38.77
2023-03-29T08:46:01.090Z,38.74
2023-03-29T08:47:01.217Z,38.76
2023-03-29T08:48:01.217Z,38.75
2023-03-29T08:49:01.184Z,38.70
2023-03-29T08:50:01.220Z,38.67
2023-03-29T08:51:01.414Z,38.64
2023-03-29T08:52:01.353Z,38.63
2023-03-29T08:53:01.320Z,38.56
2023-03-29T08:54:01.338Z,38.61
2023-03-29T08:55:01.401Z,38.59
2023-03-29T08:56:01.399Z,38.56
2023-03-29T08:57:01.475Z,38.48
2023-03-29T08:58:01.469Z,38.46
2023-03-29T08:59:01.531Z,38.42
2023-03-29T09:00:02.474Z,38.43
2023-03-29T09:01:01.806Z,38.42
2023-03-29T09:02:01.948Z,38.34
2023-03-29T09:03:01.466Z,38.35
2023-03-29T09:04:01.422Z,38.28
2023-03-29T09:05:01.330Z,38.29
2023-03-29T09:06:01.305Z,38.27
2023-03-29T09:07:01.277Z,38.27
2023-03-29T09:08:01.250Z,38.19
2023-03-29T09:09:01.264Z,38.22
2023-03-29T09:10:01.363Z,38.14
2023-03-29T09:11:01.595Z,38.17
2023-03-29T09:12:01.365Z,38.13
2023-03-29T09:13:01.453Z,38.08
2023-03-29T09:14:01.446Z,38.06
2023-03-29T09:15:01.476Z,38.00
2023-03-29T09:16:02.514Z,38.00
2023-03-29T09:17:01.548Z,38.01
2023-03-29T09:18:01.571Z,37.95
2023-03-29T09:19:01.607Z,37.92
2023-03-29T09:20:01.644Z,37.89
2023-03-29T09:21:01.852Z,37.89
2023-03-29T09:22:01.743Z,37.81
2023-03-29T09:23:01.758Z,37.83
2023-03-29T09:24:01.799Z,37.80
2023-03-29T09:25:01.829Z,37.72
2023-03-29T09:26:01.870Z,37.79
2023-03-29T09:27:01.904Z,37.75
2023-03-29T09:28:01.966Z,37.72
2023-03-29T09:29:01.982Z,37.75
2023-03-29T09:30:02.012Z,37.65
2023-03-29T09:31:02.249Z,37.65
2023-03-29T09:32:02.284Z,37.65
2023-03-29T09:33:02.149Z,37.68
2023-03-29T09:34:02.165Z,37.67
2023-03-29T09:35:02.200Z,37.62
2023-03-29T09:36:02.231Z,37.63
2023-03-29T09:37:02.237Z,37.63
2023-03-29T09:38:02.245Z,37.62
2023-03-29T09:39:02.265Z,37.55
2023-03-29T09:40:05.102Z,37.63
2023-03-29T09:41:02.452Z,37.59
2023-03-29T09:42:02.190Z,37.60
2023-03-29T09:43:02.159Z,37.57
2023-03-29T09:44:02.137Z,37.60
2023-03-29T09:45:02.166Z,37.53
2023-03-29T09:46:02.245Z,37.57
2023-03-29T09:47:02.082Z,37.57
2023-03-29T09:48:02.083Z,37.55
2023-03-29T09:49:02.004Z,37.52
2023-03-29T09:50:01.981Z,37.48
2023-03-29T09:51:02.164Z,37.46
2023-03-29T09:52:01.941Z,37.46
2023-03-29T09:53:01.912Z,37.46
2023-03-29T09:54:01.884Z,37.44
2023-03-29T09:55:01.953Z,37.42
2023-03-29T09:56:01.849Z,37.46
2023-03-29T09:57:01.856Z,37.43
2023-03-29T09:58:01.781Z,37.36
2023-03-29T09:59:01.755Z,37.37
2023-03-29T10:00:01.747Z,37.36
2023-03-29T10:01:02.056Z,37.38
2023-03-29T10:02:01.672Z,37.33
2023-03-29T10:03:01.752Z,37.35
2023-03-29T10:04:01.649Z,37.33
2023-03-29T10:05:01.712Z,37.36
2023-03-29T10:06:01.596Z,37.33
2023-03-29T10:07:01.543Z,37.28
2023-03-29T10:08:01.556Z,37.27
2023-03-29T10:09:01.508Z,37.33
2023-03-29T10:10:01.473Z,37.26
2023-03-29T10:11:01.642Z,37.28
2023-03-29T10:12:01.423Z,37.24
2023-03-29T10:13:01.416Z,37.23
2023-03-29T10:14:01.448Z,37.19
2023-03-29T10:15:01.480Z,37.24
2023-03-29T10:16:01.568Z,37.22
2023-03-29T10:17:01.586Z,37.16
2023-03-29T10:18:01.594Z,37.13
2023-03-29T10:19:01.564Z,37.18
2023-03-29T10:20:03.947Z,37.10
2023-03-29T10:21:02.005Z,37.14
2023-03-29T10:22:01.556Z,37.13
2023-03-29T10:23:01.510Z,37.10
2023-03-29T10:24:01.508Z,37.10
2023-03-29T10:25:01.456Z,37.07
2023-03-29T10:26:01.420Z,37.06
2023-03-29T10:27:01.383Z,36.98
2023-03-29T10:28:01.353Z,37.02
2023-03-29T10:29:01.324Z,36.98
2023-03-29T10:30:01.299Z,36.96
2023-03-29T10:31:01.499Z,36.93
2023-03-29T10:32:01.278Z,36.93
2023-03-29T10:33:01.217Z,36.88
2023-03-29T10:34:01.176Z,36.85
2023-03-29T10:35:01.153Z,36.90
2023-03-29T10:36:01.189Z,36.76
2023-03-29T10:37:01.208Z,36.78
2023-03-29T10:38:01.050Z,36.83
2023-03-29T10:39:02.778Z,36.75
2023-03-29T10:40:00.987Z,36.78
2023-03-29T10:41:01.027Z,36.71
2023-03-29T10:42:00.948Z,36.73
2023-03-29T10:43:00.939Z,36.68
2023-03-29T10:44:00.915Z,36.68
2023-03-29T10:45:01.133Z,36.65
2023-03-29T10:46:00.844Z,36.64
2023-03-29T10:47:00.770Z,36.61
2023-03-29T10:48:00.779Z,36.62
2023-03-29T10:49:00.699Z,36.56
2023-03-29T10:50:01.482Z,36.52
2023-03-29T10:51:00.836Z,36.52
2023-03-29T10:52:00.602Z,36.56
2023-03-29T10:53:00.578Z,36.52
2023-03-29T10:54:00.558Z,36.58
2023-03-29T10:55:00.525Z,36.52
2023-03-29T10:56:00.491Z,36.54
2023-03-29T10:57:00.529Z,36.51
2023-03-29T10:58:00.423Z,36.50
2023-03-29T10:59:00.401Z,36.49
2023-03-29T11:00:00.394Z,36.48
2023-03-29T11:01:00.512Z,36.49
2023-03-29T11:02:00.384Z,36.42
2023-03-29T11:03:00.423Z,36.48
2023-03-29T11:04:00.441Z,36.47
2023-03-29T11:05:00.296Z,36.41
2023-03-29T11:06:00.217Z,36.43
2023-03-29T11:07:00.171Z,36.43
2023-03-29T11:08:00.148Z,36.41
2023-03-29T11:09:00.114Z,36.43
2023-03-29T11:10:00.122Z,36.40
2023-03-29T11:11:00.229Z,36.42
2023-03-29T11:12:14.391Z,36.41
2023-03-29T11:13:01.005Z,36.35
2023-03-29T11:14:00.128Z,36.34
2023-03-29T11:14:59.929Z,36.37
2023-03-29T11:15:59.926Z,36.37
2023-03-29T11:16:59.868Z,36.34
2023-03-29T11:17:59.886Z,36.36
2023-03-29T11:18:59.813Z,36.36
2023-03-29T11:20:00.238Z,36.34
2023-03-29T11:20:59.829Z,36.35
2023-03-29T11:21:59.709Z,36.33
2023-03-29T11:22:59.680Z,36.34
2023-03-29T11:23:59.653Z,36.32
2023-03-29T11:24:59.675Z,36.31
2023-03-29T11:25:59.717Z,36.29
2023-03-29T11:26:59.761Z,36.27
2023-03-29T11:27:59.770Z,36.27
2023-03-29T11:28:59.781Z,36.30
2023-03-29T11:29:59.784Z,36.28
2023-03-29T11:30:59.886Z,36.27
2023-03-29T11:31:59.823Z,36.24
2023-03-29T11:32:59.901Z,36.27
2023-03-29T11:33:59.763Z,36.27
2023-03-29T11:34:59.778Z,36.23
2023-03-29T11:35:59.829Z,36.27
2023-03-29T11:36:59.826Z,36.26
2023-03-29T11:37:59.849Z,36.23
2023-03-29T11:38:59.865Z,36.27
2023-03-29T11:39:59.894Z,36.25
2023-03-29T11:40:59.908Z,36.26
2023-03-29T11:41:59.922Z,36.22
2023-03-29T11:42:59.953Z,36.25
2023-03-29T11:43:59.990Z,36.23
2023-03-29T11:45:00.049Z,36.29
2023-03-29T11:46:00.097Z,36.26
2023-03-29T11:47:00.177Z,36.23
2023-03-29T11:48:00.143Z,36.23
2023-03-29T11:49:00.134Z,36.25
2023-03-29T11:50:00.150Z,36.24
2023-03-29T11:51:00.256Z,36.23
2023-03-29T11:52:00.118Z,36.19
2023-03-29T11:53:00.067Z,36.21
2023-03-29T11:54:00.069Z,36.20
2023-03-29T11:55:00.111Z,36.17
2023-03-29T11:56:00.083Z,36.19
2023-03-29T11:57:00.156Z,36.22
2023-03-29T11:58:00.029Z,36.18
2023-03-29T11:59:00.002Z,36.18
2023-03-29T12:00:00.028Z,36.15
2023-03-29T12:01:00.293Z,36.11
2023-03-29T12:01:59.998Z,36.10
2023-03-29T12:03:00.047Z,36.11
2023-03-29T12:04:00.079Z,36.10
2023-03-29T12:04:59.911Z,36.11
2023-03-29T12:05:59.911Z,36.11
2023-03-29T12:06:59.903Z,36.08
2023-03-29T12:07:59.898Z,36.09
2023-03-29T12:08:59.858Z,36.05
2023-03-29T12:09:59.874Z,36.06
2023-03-29T12:10:59.873Z,35.99
2023-03-29T12:11:59.812Z,36.02
2023-03-29T12:12:59.795Z,35.99
2023-03-29T12:13:59.779Z,35.99
2023-03-29T12:14:59.741Z,35.98
2023-03-29T12:15:59.721Z,35.98
2023-03-29T12:16:59.738Z,35.99
2023-03-29T12:17:59.706Z,35.94
2023-03-29T12:18:59.664Z,35.93
2023-03-29T12:19:59.640Z,35.91
2023-03-29T12:20:59.704Z,35.93
2023-03-29T12:21:59.679Z,35.91
2023-03-29T12:22:59.594Z,35.84
2023-03-29T12:23:59.582Z,35.86
2023-03-29T12:24:59.528Z,35.86
2023-03-29T12:25:59.513Z,35.84
2023-03-29T12:26:59.492Z,35.86
2023-03-29T12:27:59.474Z,35.84
2023-03-29T12:28:59.449Z,35.84
2023-03-29T12:29:59.426Z,35.86
2023-03-29T12:30:59.408Z,35.82
2023-03-29T12:31:59.411Z,35.78
2023-03-29T12:32:59.387Z,35.78
2023-03-29T12:33:59.349Z,35.75
2023-03-29T12:34:59.329Z,35.76
2023-03-29T12:35:59.372Z,35.76
2023-03-29T12:36:59.283Z,35.70
2023-03-29T12:37:59.282Z,35.76
2023-03-29T12:38:59.242Z,35.73
2023-03-29T12:39:59.240Z,35.73
2023-03-29T12:40:59.264Z,35.72
2023-03-29T12:41:59.204Z,35.72
2023-03-29T12:42:59.185Z,35.73
2023-03-29T12:43:59.171Z,35.71
2023-03-29T12:44:59.155Z,35.67
2023-03-29T12:45:59.169Z,35.67
2023-03-29T12:46:59.124Z,35.68
2023-03-29T12:47:59.239Z,35.69
2023-03-29T12:48:59.095Z,35.68
2023-03-29T12:49:59.070Z,35.68
2023-03-29T12:50:59.045Z,35.63
2023-03-29T12:51:59.045Z,35.68
2023-03-29T12:52:59.021Z,35.68